createdAt,value
2022-10-21T00:01:06.666Z,2.30
2022-10-21T00:03:35.397Z,2.00
2022-10-21T00:06:03.525Z,2.50
2022-10-21T00:08:31.965Z,2.10
2022-10-21T00:11:02.462Z,2.20
2022-10-21T00:13:32.430Z,2.10
2022-10-21T00:16:05.279Z,1.93
2022-10-21T00:18:34.985Z,1.93
2022-10-21T00:21:07.151Z,2.00
2022-10-21T00:23:35.462Z,2.00
2022-10-21T00:26:04.254Z,1.70
2022-10-21T00:28:33.051Z,1.83
2022-10-21T00:31:02.798Z,1.80
2022-10-21T00:33:30.872Z,1.80
2022-10-21T00:36:02.793Z,1.93
2022-10-21T00:38:31.469Z,2.20
2022-10-21T00:41:00.530Z,1.90
2022-10-21T00:43:29.324Z,2.10
2022-10-21T00:46:01.167Z,1.93
2022-10-21T00:48:35.447Z,2.00
2022-10-21T00:51:08.811Z,2.27
2022-10-21T00:53:40.651Z,2.20
2022-10-21T00:56:16.298Z,1.67
2022-10-21T00:58:47.155Z,2.23
2022-10-21T01:01:19.193Z,1.97
2022-10-21T01:03:51.161Z,2.10
2022-10-21T01:06:23.071Z,2.23
2022-10-21T01:08:53.200Z,2.30
2022-10-21T01:11:22.573Z,1.90
2022-10-21T01:14:14.661Z,2.13
2022-10-21T01:16:48.811Z,1.63
2022-10-21T01:20:03.302Z,1.83
2022-10-21T01:22:52.205Z,1.83
2022-10-21T01:25:46.396Z,1.87
2022-10-21T01:28:26.328Z,2.13
2022-10-21T01:30:58.252Z,2.20
2022-10-21T01:33:42.013Z,2.00
2022-10-21T01:36:26.854Z,2.40
2022-10-21T01:39:07.049Z,2.80
2022-10-21T01:41:42.700Z,2.57
2022-10-21T01:44:17.902Z,2.93
2022-10-21T01:46:51.476Z,2.53
2022-10-21T01:49:24.772Z,2.50
2022-10-21T01:51:54.513Z,2.13
2022-10-21T01:54:25.595Z,2.03
2022-10-21T01:56:55.389Z,1.97
2022-10-21T01:59:26.230Z,2.23
2022-10-21T02:01:58.126Z,2.20
2022-10-21T02:04:28.338Z,2.67
2022-10-21T02:06:56.585Z,2.60
2022-10-21T02:09:25.763Z,2.60
2022-10-21T02:11:58.141Z,2.40
2022-10-21T02:14:31.635Z,2.80
2022-10-21T02:17:01.658Z,2.90
2022-10-21T02:22:03.621Z,2.13
2022-10-21T02:24:40.371Z,2.07
2022-10-21T02:27:08.650Z,2.23
2022-10-21T02:29:39.484Z,2.60
2022-10-21T02:32:25.184Z,2.87
2022-10-21T02:35:09.958Z,3.23
2022-10-21T02:37:44.713Z,2.40
2022-10-21T02:40:17.990Z,2.23
2022-10-21T02:42:51.587Z,2.50
2022-10-21T02:45:20.302Z,2.30
2022-10-21T02:47:51.519Z,2.57
2022-10-21T02:50:19.978Z,2.33
2022-10-21T02:52:48.446Z,2.87
2022-10-21T02:55:16.694Z,2.33
2022-10-21T02:57:44.824Z,2.33
2022-10-21T03:00:14.489Z,2.73
2022-10-21T03:02:42.806Z,2.90
2022-10-21T03:05:13.105Z,2.50
2022-10-21T03:07:41.852Z,2.70
2022-10-21T03:10:10.583Z,2.17
2022-10-21T03:12:39.046Z,2.27
2022-10-21T03:15:08.339Z,3.30
2022-10-21T03:17:36.642Z,2.30
2022-10-21T03:20:05.357Z,2.83
2022-10-21T03:22:36.066Z,2.37
2022-10-21T03:25:04.177Z,2.50
2022-10-21T03:30:07.504Z,2.90
2022-10-21T03:32:36.060Z,2.80
2022-10-21T03:35:04.542Z,2.80
2022-10-21T03:37:33.377Z,3.30
2022-10-21T03:40:02.888Z,2.83
2022-10-21T03:42:30.952Z,3.13
2022-10-21T03:44:59.550Z,3.20
2022-10-21T03:47:27.704Z,3.23
2022-10-21T03:49:55.827Z,2.70
2022-10-21T03:52:24.181Z,3.40
2022-10-21T03:54:52.240Z,3.17
2022-10-21T03:57:21.836Z,3.00
2022-10-21T03:59:50.345Z,3.27
2022-10-21T04:02:18.490Z,3.07
2022-10-21T04:04:46.606Z,3.27
2022-10-21T04:07:15.378Z,2.97
2022-10-21T04:09:43.457Z,2.90
2022-10-21T04:12:12.405Z,3.57
2022-10-21T04:14:42.433Z,3.27
2022-10-21T04:17:10.515Z,3.50
2022-10-21T04:19:38.583Z,3.20
2022-10-21T04:22:06.982Z,3.30
2022-10-21T04:24:35.086Z,3.30
2022-10-21T04:27:03.220Z,3.00
2022-10-21T04:29:31.861Z,2.73
2022-10-21T04:32:01.320Z,2.93
2022-10-21T04:34:29.422Z,3.47
2022-10-21T04:37:01.057Z,3.20
2022-10-21T04:39:32.374Z,3.60
2022-10-21T04:42:00.977Z,3.80
2022-10-21T04:44:29.085Z,3.30
2022-10-21T04:46:57.255Z,3.03
2022-10-21T04:49:27.211Z,3.33
2022-10-21T04:51:55.337Z,3.50
2022-10-21T04:54:23.422Z,3.20
2022-10-21T04:56:51.902Z,2.93
2022-10-21T04:59:20.112Z,3.07
2022-10-21T05:01:48.194Z,3.57
2022-10-21T05:04:16.806Z,3.03
2022-10-21T05:06:46.262Z,3.20
2022-10-21T05:09:14.546Z,3.20
2022-10-21T05:11:42.922Z,2.60
2022-10-21T05:14:11.142Z,3.37
2022-10-21T05:16:39.200Z,3.00
2022-10-21T05:19:07.585Z,3.30
2022-10-21T05:24:10.831Z,3.33
2022-10-21T05:26:39.073Z,3.20
2022-10-21T05:29:07.146Z,3.33
2022-10-21T05:31:35.441Z,3.20
2022-10-21T05:34:03.569Z,3.37
2022-10-21T05:36:31.682Z,3.43
2022-10-21T05:39:00.212Z,3.03
2022-10-21T05:41:29.766Z,3.77
2022-10-21T05:43:57.910Z,3.20
2022-10-21T05:46:26.617Z,3.60
2022-10-21T05:48:54.736Z,3.80
2022-10-21T05:51:26.427Z,3.30
2022-10-21T05:53:55.336Z,3.50
2022-10-21T05:56:23.674Z,3.07
2022-10-21T05:58:53.115Z,2.93
2022-10-21T06:01:21.897Z,3.50
2022-10-21T06:03:50.232Z,3.27
2022-10-21T06:06:18.370Z,3.73
2022-10-21T06:08:46.702Z,3.30
2022-10-21T06:11:17.061Z,3.27
2022-10-21T06:13:45.712Z,3.47
2022-10-21T06:16:17.188Z,3.87
2022-10-21T06:18:45.349Z,3.57
2022-10-21T06:21:13.502Z,3.40
2022-10-21T06:23:42.241Z,3.67
2022-10-21T06:26:13.482Z,2.87
2022-10-21T06:28:44.582Z,4.07
2022-10-21T06:31:16.727Z,3.67
2022-10-21T06:33:44.981Z,4.20
2022-10-21T06:36:13.175Z,3.90
2022-10-21T06:38:41.660Z,3.93
2022-10-21T06:41:13.635Z,3.90
2022-10-21T06:43:42.329Z,3.80
2022-10-21T06:46:12.470Z,3.40
2022-10-21T06:48:42.044Z,3.50
2022-10-21T06:51:13.108Z,3.70
2022-10-21T06:53:41.194Z,3.50
2022-10-21T06:56:11.425Z,3.57
2022-10-21T06:58:43.510Z,3.10
2022-10-21T07:01:27.401Z,3.50
2022-10-21T07:04:03.507Z,3.30
2022-10-21T07:09:06.344Z,3.10
2022-10-21T07:11:34.540Z,3.50
2022-10-21T07:14:03.152Z,3.47
2022-10-21T07:16:33.424Z,3.60
2022-10-21T07:19:02.993Z,3.27
2022-10-21T07:21:32.553Z,3.53
2022-10-21T07:24:01.494Z,4.50
2022-10-21T07:26:31.279Z,3.93
2022-10-21T07:29:00.978Z,3.60
2022-10-21T07:31:32.288Z,3.93
2022-10-21T07:36:37.813Z,3.50
2022-10-21T07:39:08.591Z,3.40
2022-10-21T07:41:39.654Z,3.13
2022-10-21T07:44:08.643Z,3.40
2022-10-21T07:46:38.995Z,3.63
2022-10-21T07:49:09.226Z,3.30
2022-10-21T07:51:37.655Z,3.23
2022-10-21T07:54:05.938Z,2.80
2022-10-21T07:56:37.711Z,3.00
2022-10-21T07:59:11.655Z,2.60
2022-10-21T08:01:44.720Z,3.00
2022-10-21T08:04:16.162Z,2.80
2022-10-21T08:06:45.255Z,3.10
2022-10-21T08:09:13.922Z,2.53
2022-10-21T08:11:42.419Z,2.50
2022-10-21T08:14:11.868Z,2.57
2022-10-21T08:16:40.484Z,2.27
2022-10-21T08:19:09.706Z,2.20
2022-10-21T08:21:39.899Z,1.90
2022-10-21T08:24:08.213Z,2.07
2022-10-21T08:26:36.366Z,1.97
2022-10-21T08:29:05.509Z,2.20
2022-10-21T08:31:33.918Z,2.20
2022-10-21T08:34:02.013Z,2.30
2022-10-21T08:36:30.346Z,1.93
2022-10-21T08:39:00.213Z,2.03
2022-10-21T08:41:49.867Z,1.50
2022-10-21T08:44:30.251Z,1.87
2022-10-21T08:47:05.737Z,1.47
2022-10-21T08:49:45.373Z,1.93
2022-10-21T08:52:16.732Z,1.63
2022-10-21T08:54:49.177Z,1.80
2022-10-21T08:57:17.813Z,1.90
2022-10-21T08:59:46.813Z,1.67
2022-10-21T09:02:34.602Z,1.57
2022-10-21T09:05:34.115Z,1.43
2022-10-21T09:08:17.041Z,1.80
2022-10-21T09:11:01.215Z,1.17
2022-10-21T09:13:43.439Z,1.50
2022-10-21T09:16:19.381Z,1.43
2022-10-21T09:18:57.932Z,1.70
2022-10-21T09:21:37.165Z,1.40
2022-10-21T09:24:08.678Z,1.40
2022-10-21T09:26:43.246Z,2.00
2022-10-21T09:29:31.934Z,1.50
2022-10-21T09:32:11.814Z,1.60
2022-10-21T09:34:48.888Z,1.60
2022-10-21T09:37:24.701Z,1.50
2022-10-21T09:40:00.468Z,1.47
2022-10-21T09:42:46.246Z,1.50
2022-10-21T09:45:24.155Z,1.37
2022-10-21T09:47:58.054Z,1.33
2022-10-21T09:50:27.141Z,1.47
2022-10-21T09:53:01.652Z,1.43
2022-10-21T09:55:31.188Z,1.10
2022-10-21T09:58:02.361Z,1.13
2022-10-21T10:00:46.418Z,1.43
2022-10-21T10:03:29.809Z,1.57
2022-10-21T10:05:58.586Z,1.40
2022-10-21T10:08:36.935Z,1.37
2022-10-21T10:11:13.289Z,1.57
2022-10-21T10:13:45.589Z,1.27
2022-10-21T10:16:24.542Z,1.13
2022-10-21T10:18:54.253Z,1.13
2022-10-21T10:21:23.649Z,1.30
2022-10-21T10:23:53.951Z,1.20
2022-10-21T10:26:27.418Z,1.23
2022-10-21T10:28:59.991Z,1.20
2022-10-21T10:31:32.821Z,1.00
2022-10-21T10:34:04.494Z,1.17
2022-10-21T10:36:36.369Z,0.97
2022-10-21T10:39:08.182Z,1.00
2022-10-21T10:41:39.950Z,1.23
2022-10-21T10:44:24.723Z,1.10
2022-10-21T10:46:57.013Z,1.50
2022-10-21T10:49:27.700Z,1.20
2022-10-21T10:52:08.272Z,1.00
2022-10-21T10:54:37.026Z,1.10
2022-10-21T10:57:09.856Z,1.60
2022-10-21T10:59:43.542Z,1.43
2022-10-21T11:02:24.640Z,1.50
2022-10-21T11:05:15.125Z,1.30
2022-10-21T11:07:47.256Z,1.20
2022-10-21T11:10:33.830Z,1.30
2022-10-21T11:13:04.248Z,1.40
2022-10-21T11:15:46.178Z,1.50
2022-10-21T11:18:24.376Z,1.30
2022-10-21T11:21:02.718Z,1.30
2022-10-21T11:23:47.204Z,1.50
2022-10-21T11:26:24.318Z,1.13
2022-10-21T11:28:57.794Z,1.73
2022-10-21T11:31:43.733Z,1.70
2022-10-21T11:34:32.693Z,1.20
2022-10-21T11:37:09.263Z,1.40
2022-10-21T11:39:49.218Z,1.57
2022-10-21T11:42:24.088Z,1.67
2022-10-21T11:45:06.252Z,1.70
2022-10-21T11:47:43.438Z,1.83
2022-10-21T11:50:21.965Z,1.50
2022-10-21T11:53:12.801Z,1.57
2022-10-21T11:55:48.901Z,1.43
2022-10-21T11:58:28.968Z,1.60
2022-10-21T12:01:15.770Z,1.10
2022-10-21T12:04:21.745Z,1.73
2022-10-21T12:06:59.662Z,1.00
2022-10-21T12:09:32.616Z,1.30
2022-10-21T12:12:06.533Z,1.07
2022-10-21T12:14:38.816Z,1.00
2022-10-21T12:17:12.123Z,1.10
2022-10-21T12:19:42.960Z,2.07
2022-10-21T12:22:12.431Z,1.23
2022-10-21T12:24:49.210Z,1.87
2022-10-21T12:27:24.596Z,1.10
2022-10-21T12:30:02.504Z,1.20
2022-10-21T12:32:36.697Z,1.40
2022-10-21T12:35:07.517Z,0.80
2022-10-21T12:38:07.428Z,0.87
2022-10-21T12:40:40.003Z,0.93
2022-10-21T12:43:19.886Z,1.30
2022-10-21T12:46:02.601Z,1.30
2022-10-21T12:48:34.978Z,1.20
2022-10-21T12:51:07.812Z,1.00
2022-10-21T12:53:41.707Z,0.90
2022-10-21T12:56:12.507Z,1.00
2022-10-21T12:58:43.957Z,0.80
2022-10-21T13:01:40.852Z,0.87
2022-10-21T13:04:42.162Z,0.87
2022-10-21T13:07:37.300Z,2.00
2022-10-21T13:10:35.696Z,2.63
2022-10-21T13:13:30.543Z,1.97
2022-10-21T13:15:59.150Z,1.90
2022-10-21T13:18:56.709Z,1.13
2022-10-21T13:21:27.447Z,0.90
2022-10-21T13:23:59.580Z,0.80
2022-10-21T13:26:30.162Z,1.10
2022-10-21T13:29:18.118Z,0.80
2022-10-21T13:31:46.372Z,0.80
2022-10-21T13:34:29.595Z,1.10
2022-10-21T13:36:58.655Z,0.90
2022-10-21T13:39:32.747Z,0.90
2022-10-21T13:42:04.118Z,0.90
2022-10-21T13:44:37.204Z,0.73
2022-10-21T13:47:30.282Z,0.90
2022-10-21T13:50:20.514Z,0.90
2022-10-21T13:52:49.072Z,0.60
2022-10-21T13:55:21.992Z,0.90
2022-10-21T13:57:51.732Z,1.00
2022-10-21T14:00:23.595Z,1.00
2022-10-21T14:02:53.167Z,1.10
2022-10-21T14:05:34.668Z,0.70
2022-10-21T14:08:03.708Z,1.30
2022-10-21T14:10:33.337Z,1.20
2022-10-21T14:13:02.046Z,1.03
2022-10-21T14:15:40.780Z,1.63
2022-10-21T14:18:09.824Z,1.50
2022-10-21T14:20:39.275Z,1.20
2022-10-21T14:23:16.641Z,1.23
2022-10-21T14:25:48.962Z,1.10
2022-10-21T14:28:19.013Z,1.30
2022-10-21T14:30:47.749Z,1.20
2022-10-21T14:33:22.721Z,1.20
2022-10-21T14:36:06.974Z,1.03
2022-10-21T14:38:40.825Z,1.83
2022-10-21T14:41:17.660Z,2.10
2022-10-21T14:43:47.871Z,1.60
2022-10-21T14:46:16.562Z,1.80
2022-10-21T14:48:48.671Z,1.60
2022-10-21T14:51:21.368Z,2.00
2022-10-21T14:53:54.989Z,1.90
2022-10-21T14:56:31.043Z,2.50
2022-10-21T14:59:01.486Z,2.10
2022-10-21T15:01:29.677Z,2.90
2022-10-21T15:03:58.871Z,2.93
2022-10-21T15:06:29.404Z,3.13
2022-10-21T15:09:03.348Z,4.20
2022-10-21T15:11:41.904Z,2.77
2022-10-21T15:14:33.104Z,1.80
2022-10-21T15:17:04.314Z,1.90
2022-10-21T15:19:44.137Z,1.70
2022-10-21T15:22:28.129Z,1.43
2022-10-21T15:25:01.130Z,1.53
2022-10-21T15:27:37.127Z,1.50
2022-10-21T15:30:07.646Z,2.00
2022-10-21T15:32:35.770Z,2.07
2022-10-21T15:35:08.085Z,2.20
2022-10-21T15:37:36.697Z,2.57
2022-10-21T15:40:05.477Z,2.20
2022-10-21T15:42:35.027Z,3.20
2022-10-21T15:45:03.685Z,2.70
2022-10-21T15:47:31.749Z,2.07
2022-10-21T15:50:00.164Z,1.80
2022-10-21T15:52:28.343Z,1.93
2022-10-21T15:54:56.525Z,1.90
2022-10-21T15:57:25.237Z,2.10
2022-10-21T15:59:54.925Z,2.10
2022-10-21T16:02:23.151Z,2.23
2022-10-21T16:04:53.369Z,2.43
2022-10-21T16:07:23.353Z,2.47
2022-10-21T16:09:51.524Z,2.30
2022-10-21T16:12:22.292Z,2.37
2022-10-21T16:14:50.477Z,2.30
2022-10-21T16:17:20.486Z,2.47
2022-10-21T16:19:49.042Z,2.40
2022-10-21T16:22:21.960Z,2.60
2022-10-21T16:24:50.428Z,2.40
2022-10-21T16:27:30.935Z,2.93
2022-10-21T16:30:17.056Z,2.40
2022-10-21T16:32:47.336Z,3.33
2022-10-21T16:35:16.450Z,2.90
2022-10-21T16:37:45.087Z,3.13
2022-10-21T16:40:20.400Z,3.43
2022-10-21T16:42:49.472Z,3.47
2022-10-21T16:45:18.634Z,3.43
2022-10-21T16:47:52.936Z,3.60
2022-10-21T16:50:24.018Z,3.47
2022-10-21T16:52:52.157Z,4.30
2022-10-21T16:55:20.755Z,4.37
2022-10-21T16:57:49.156Z,4.10
2022-10-21T17:00:18.079Z,3.67
2022-10-21T17:02:50.317Z,2.87
2022-10-21T17:05:19.272Z,3.60
2022-10-21T17:07:47.353Z,3.30
2022-10-21T17:10:15.818Z,3.17
2022-10-21T17:12:44.470Z,3.50
2022-10-21T17:15:13.961Z,2.77
2022-10-21T17:17:42.607Z,2.70
2022-10-21T17:20:13.034Z,3.00
2022-10-21T17:22:41.242Z,2.73
2022-10-21T17:25:12.921Z,2.77
2022-10-21T17:27:41.618Z,3.13
2022-10-21T17:30:12.318Z,3.73
2022-10-21T17:35:18.768Z,2.93
2022-10-21T17:37:47.999Z,4.23
2022-10-21T17:40:18.059Z,2.37
2022-10-21T17:42:46.185Z,2.80
2022-10-21T17:45:15.610Z,2.30
2022-10-21T17:47:43.953Z,3.13
2022-10-21T17:50:14.493Z,2.93
2022-10-21T17:52:43.718Z,3.30
2022-10-21T17:55:12.016Z,3.40
2022-10-21T17:57:40.103Z,3.67
2022-10-21T18:00:09.733Z,3.20
2022-10-21T18:02:38.449Z,3.30
2022-10-21T18:05:09.054Z,3.60
2022-10-21T18:07:39.355Z,3.20
2022-10-21T18:10:08.528Z,2.60
2022-10-21T18:12:37.255Z,3.50
2022-10-21T18:15:06.627Z,3.20
2022-10-21T18:17:35.172Z,3.70
2022-10-21T18:20:03.372Z,3.40
2022-10-21T18:22:31.504Z,3.60
2022-10-21T18:25:00.961Z,3.40
2022-10-21T18:27:29.221Z,3.30
2022-10-21T18:29:57.421Z,3.70
2022-10-21T18:32:25.534Z,3.13
2022-10-21T18:34:53.649Z,3.97
2022-10-21T18:37:21.834Z,3.23
2022-10-21T18:39:54.188Z,3.43
2022-10-21T18:42:25.479Z,3.50
2022-10-21T18:44:53.588Z,3.90
2022-10-21T18:47:21.707Z,3.30
2022-10-21T18:49:51.498Z,3.53
2022-10-21T18:52:19.628Z,3.37
2022-10-21T18:54:47.696Z,3.43
2022-10-21T18:57:16.465Z,3.00
2022-10-21T18:59:46.349Z,3.20
2022-10-21T19:02:20.966Z,3.20
2022-10-21T19:04:49.181Z,3.00
2022-10-21T19:07:17.457Z,2.80
2022-10-21T19:09:46.872Z,2.90
2022-10-21T19:12:18.428Z,3.47
2022-10-21T19:14:51.044Z,3.33
2022-10-21T19:17:19.846Z,3.13
2022-10-21T19:19:47.961Z,3.13
2022-10-21T19:22:17.414Z,2.93
2022-10-21T19:24:45.641Z,3.73
2022-10-21T19:27:13.725Z,3.30
2022-10-21T19:29:43.512Z,4.03
2022-10-21T19:32:13.217Z,3.50
2022-10-21T19:34:41.342Z,3.83
2022-10-21T19:37:10.753Z,3.50
2022-10-21T19:39:38.839Z,3.40
2022-10-21T19:42:06.912Z,3.40
2022-10-21T19:44:35.202Z,3.60
2022-10-21T19:47:03.332Z,2.90
2022-10-21T19:49:32.990Z,3.40
2022-10-21T19:52:03.648Z,3.10
2022-10-21T19:54:31.873Z,3.60
2022-10-21T19:56:59.966Z,3.50
2022-10-21T19:59:28.681Z,3.17
2022-10-21T20:01:56.797Z,3.90
2022-10-21T20:04:24.974Z,3.43
2022-10-21T20:06:54.773Z,4.93
2022-10-21T20:09:22.869Z,4.27
2022-10-21T20:11:51.023Z,4.13
2022-10-21T20:14:19.721Z,4.57
2022-10-21T20:16:50.142Z,4.60
2022-10-21T20:19:18.314Z,4.33
2022-10-21T20:21:48.230Z,3.90
2022-10-21T20:24:18.069Z,3.30
2022-10-21T20:26:49.555Z,3.63
2022-10-21T20:29:18.759Z,3.57
2022-10-21T20:31:47.181Z,3.70
2022-10-21T20:34:15.824Z,3.60
2022-10-21T20:36:44.961Z,3.00
2022-10-21T20:39:13.510Z,3.63
2022-10-21T20:41:43.489Z,3.97
2022-10-21T20:44:16.129Z,3.67
2022-10-21T20:46:45.226Z,3.50
2022-10-21T20:49:13.926Z,4.17
2022-10-21T20:51:43.280Z,4.93
2022-10-21T20:54:14.601Z,4.83
2022-10-21T20:56:44.984Z,4.70
2022-10-21T20:59:15.966Z,4.87
2022-10-21T21:01:46.517Z,4.47
2022-10-21T21:04:17.366Z,4.03
2022-10-21T21:06:47.470Z,5.10
2022-10-21T21:12:07.113Z,5.07
2022-10-21T21:14:35.249Z,5.50
2022-10-21T21:17:03.389Z,4.90
2022-10-21T21:19:32.390Z,4.53
2022-10-21T21:22:00.475Z,4.97
2022-10-21T21:24:28.649Z,5.30
2022-10-21T21:26:57.157Z,5.20
2022-10-21T21:29:26.577Z,5.17
2022-10-21T21:31:54.696Z,5.93
2022-10-21T21:34:23.158Z,5.30
2022-10-21T21:36:51.257Z,4.97
2022-10-21T21:39:19.470Z,5.17
2022-10-21T21:41:48.016Z,5.27
2022-10-21T21:44:16.109Z,5.23
2022-10-21T21:46:45.589Z,4.93
2022-10-21T21:49:14.284Z,6.00
2022-10-21T21:51:42.353Z,5.20
2022-10-21T21:54:10.432Z,4.50
2022-10-21T21:56:39.163Z,4.67
2022-10-21T21:59:07.312Z,5.07
2022-10-21T22:01:35.481Z,4.70
2022-10-21T22:04:05.473Z,4.83
2022-10-21T22:06:36.742Z,6.00
2022-10-21T22:09:10.380Z,4.67
2022-10-21T22:11:38.978Z,4.90
2022-10-21T22:14:07.140Z,4.67
2022-10-21T22:16:35.574Z,5.53
2022-10-21T22:19:05.323Z,4.77
2022-10-21T22:21:33.603Z,5.30
2022-10-21T22:24:01.822Z,5.40
2022-10-21T22:26:30.080Z,5.20
2022-10-21T22:28:58.710Z,5.83
2022-10-21T22:31:30.239Z,5.83
2022-10-21T22:34:00.450Z,6.50
2022-10-21T22:36:30.405Z,6.37
2022-10-21T22:38:58.690Z,5.80
2022-10-21T22:41:27.094Z,6.83
2022-10-21T22:43:55.315Z,6.87
2022-10-21T22:46:38.905Z,5.80
2022-10-21T22:49:07.408Z,5.67
2022-10-21T22:51:37.120Z,6.40
2022-10-21T22:54:11.628Z,5.93
2022-10-21T22:56:47.937Z,5.37
2022-10-21T22:59:16.024Z,5.40
2022-10-21T23:01:44.354Z,5.73
2022-10-21T23:04:12.553Z,6.10
2022-10-21T23:06:42.007Z,5.97
2022-10-21T23:09:10.798Z,5.60
2022-10-21T23:11:39.163Z,6.43
2022-10-21T23:14:09.385Z,6.70
2022-10-21T23:16:38.134Z,6.70
2022-10-21T23:19:06.535Z,6.33
2022-10-21T23:21:34.689Z,7.27
2022-10-21T23:24:05.034Z,6.47
2022-10-21T23:26:33.099Z,6.83
2022-10-21T23:29:01.225Z,6.13
2022-10-21T23:31:29.435Z,7.17
2022-10-21T23:33:57.672Z,6.33
2022-10-21T23:36:25.817Z,7.03
2022-10-21T23:38:56.383Z,6.23
2022-10-21T23:41:26.372Z,6.03
2022-10-21T23:43:54.505Z,6.57
2022-10-21T23:46:23.091Z,6.17
2022-10-21T23:48:51.610Z,6.93
2022-10-21T23:51:20.023Z,6.67
2022-10-21T23:53:48.286Z,6.60
2022-10-21T23:56:16.900Z,6.23
2022-10-21T23:58:46.388Z,6.33
